Airfield :
LOGIN :

Register | Disclaimer

   EN    FR    IT 

 










Legend :    VFR   Marginal VFR   IFR   Intensive IFR   Very Intensive IFR
Visi :
Ceiling :
>= 8 km
>= 3000ft
5 to 8 km
1000 to 3000 ft
1500m to 5 km
500 to 1000 ft
800 to 1500m
200 to 500 ft
< 800m
< 200 ft
Symbols :   Thunderstorms  Fog  Heavy snow  Heavy precipitations  Wind > 20 kt
SIGMETs :     Misc.  Thunderstorms  Icing  Turbulence  Mountain Waves  Volcanic Ashes






- Airport Elevation : 106 ft
- IATA code : NRN


EDLV - Weeze

CURRENT METAR :
  • 011520Z 27018KT 9999 BKN027 OVC048 08/03 Q1018

EXPIRED METARs :
  • 011450Z 27021KT 9999 BKN028 OVC042 08/03 Q1018
  • 011420Z 27021KT 9999 BKN028 OVC038 08/03 Q1018
  • 011350Z 28020KT 9999 BKN027 BKN032 08/03 Q1017
  • 011320Z 27020KT 9999 BKN026 BKN030 OVC035 08/03 Q1018
  • 011250Z 27020KT 9999 -RA BKN026 OVC033 08/03 Q1018

TAF TAF EDLV
Valid from the 01 at 12:00 until the 02 at 12:00 UTC


011100Z 0112/0212 27015G25KT 9999 BKN025
TEMPO 0112/0117 28020G35KT 4000 SHRA BKN014CB
BECMG 0117/0120 27012KT
PROB30
TEMPO 0117/0124 4000 SHRA BKN010CB
BECMG 0202/0204 BKN012
PROB30
TEMPO 0203/0212 4000 RADZ BKN008



MET'MAP, your aeronautical weather chart ! - Copyright ORBIFLY December 2007 - Disclaimer

ORBIFLY MET'MAP TEAM :

Programming & Development : Alexandra Zaïnal
Original concept : Baudouin d'Aumeries
Technical & hardware support : Manuel Goepfert
Assistance : Marc-Olivier Méhu




SOURCES & CREDITS :

   NOAA